Latest Coastal Weather Observations for Larapuna (Eddystone Point)

IDT60701

Issued at 3:12 pm EST Sunday 25 June 2017 (issued every 10 minutes, with the page automatically refreshed every 10 minutes)

About coastal observations | Map of coastal stations | Coastal observations for TAS | Marine services | Other Formats
Station Details ID: 092045 Name: LARAPUNA (EDDYSTONE POINT) Lat: -40.99 Lon: 148.35 Height: 19.7 m
Data from the previous 72 hours. | See also: Recent months at Larapuna (Eddystone Point)
Date/Time
EST
Temp
°C
Wind Pressure Rain since
9am
mm
Weather Cloud Vis
km
Sea
Height
m
Swell
Dir  Spd
kts
Gust
kts
hPa Trend Height
m
Period
s
Dir
25/03:00pm 11.1 WNW 22 33 1004.6 - 2.0 Recent precip. - - - - - -
25/02:30pm 10.6 NW 25 38 1004.2 - 2.0 - - - - - - -
25/02:05pm 10.2 WNW 20 30 1004.6 - 1.8 - - - - - - -
25/02:00pm 10.1 WNW 21 29 1004.8 - 1.8 - - - - - - -
25/01:30pm 11.4 WNW 18 31 1005.2 - 1.6 - - - - - - -
25/01:00pm 10.7 WNW 20 30 1005.4 - 1.6 - - - - - - -
25/12:32pm 9.8 WNW 16 26 1006.1 - 1.6 - - - - - - -
25/12:30pm 9.8 WNW 15 22 1006.1 - 1.6 - - - - - - -
25/12:03pm 10.0 WNW 19 29 1007.0 - 1.2 - - - - - - -
25/12:00pm 9.9 WNW 20 26 1007.0 - 1.2 Rain - - - - - -
25/11:30am 10.6 NW 16 25 1007.6 - 0.4 - - - - - - -
25/11:03am 10.5 NW 15 25 1008.0 - 0.2 - - - - - - -
25/11:00am 10.4 NW 14 25 1008.2 - 0.2 - - - - - - -
25/10:31am 10.6 WNW 16 26 1008.5 - 0.2 - - - - - - -
25/10:30am 10.5 WNW 17 26 1008.5 - 0.2 - - - - - - -
25/10:06am 10.3 WNW 15 25 1008.6 - 0.0 - - - - - - -
25/10:00am 10.5 NW 14 19 1008.7 - 0.0 - - - - - - -
25/09:30am 9.7 WNW 11 17 1008.9 - 0.0 - - - - - - -
25/09:00am 9.4 NW 13 19 1009.0 - 0.8 Recent precip. - - - - - -
25/08:30am 9.1 WNW 10 14 1009.1 - 0.6 - - - - - - -
25/08:00am 8.8 WNW 10 16 1009.1 - 0.6 - - - - - - -
25/07:30am 8.7 WNW 10 13 1009.2 - 0.6 - - - - - - -
25/07:00am 8.6 NW 14 21 1009.3 - 0.2 - - - - - - -
25/06:30am 8.2 WNW 9 12 1009.4 - 0.0 - - - - - - -
25/06:00am 8.3 WNW 12 15 1009.1 - 0.0 - - - - - - -
25/05:30am 8.5 WNW 13 18 1009.1 - 0.0 - - - - - - -
25/05:00am 8.4 WNW 11 18 1009.0 - 0.0 - - - - - - -
25/04:30am 8.5 WNW 13 19 1009.1 - 0.0 - - - - - - -
25/04:00am 8.7 WNW 9 14 1009.6 - 0.0 - - - - - - -
25/03:30am 8.6 WNW 9 15 1009.8 - 0.0 - - - - - - -
25/03:00am 8.5 WNW 10 14 1010.1 - 0.0 - - - - - - -
25/02:30am 8.3 WNW 9 12 1010.4 - 0.0 - - - - - - -
25/02:00am 8.3 WNW 9 11 1010.4 - 0.0 - - - - - - -
25/01:30am 8.5 WNW 10 15 1010.3 - 0.0 - - - - - - -
25/01:00am 8.6 WNW 11 14 1010.4 - 0.0 - - - - - - -
25/12:30am 8.6 NW 7 11 1010.8 - 0.0 - - - - - - -
25/12:00am 8.5 W 9 13 1011.2 - 0.0 - - - - - - -
 
Date/Time
EST
Temp
°C
Wind Pressure Rain since
9am
mm
Weather Cloud Vis
km
Sea
Height
m
Swell
Dir  Spd
kts
Gust
kts
hPa Trend Height
m
Period
s
Dir
24/11:30pm 8.3 WNW 5 6 1011.4 - 0.0 - - - - - - -
24/11:00pm 8.4 W 9 12 1011.6 - 0.0 - - - - - - -
24/10:30pm 8.3 W 9 11 1012.0 - 0.0 - - - - - - -
24/10:00pm 8.1 W 8 11 1011.9 - 0.0 - - - - - - -
24/09:30pm 8.0 NW 8 11 1012.1 - 0.0 - - - - - - -
24/09:00pm 8.1 NW 8 11 1012.2 - 0.0 - - - - - - -
24/08:30pm 8.1 NW 6 8 1012.4 - 0.0 - - - - - - -
24/08:00pm 8.1 NW 7 9 1012.3 - 0.0 - - - - - - -
24/07:30pm 7.9 NW 7 8 1012.4 - 0.0 - - - - - - -
24/07:00pm 7.9 NW 9 11 1012.3 - 0.0 - - - - - - -
24/06:30pm 7.7 WNW 9 14 1012.3 - 0.0 - - - - - - -
24/06:00pm 7.8 WNW 10 12 1012.2 - 0.0 - - - - - - -
24/05:30pm 8.1 NW 7 9 1012.1 - 0.0 - - - - - - -
24/05:00pm 8.4 WNW 10 13 1011.9 - 0.0 - - - - - - -
24/04:30pm 8.8 WNW 6 12 1011.7 - 0.0 - - - - - - -
24/04:00pm 9.3 W 8 13 1011.5 - 0.0 - - - - - - -
24/03:30pm 9.7 W 8 11 1011.4 - 0.0 - - - - - - -
24/03:00pm 9.8 WNW 11 15 1011.2 - 0.0 - - - - - - -
24/02:30pm 10.7 W 9 16 1011.2 - 0.0 - - - - - - -
24/02:00pm 11.0 WNW 10 15 1011.4 - 0.0 - - - - - - -
24/01:30pm 10.6 WSW 9 14 1011.6 - 0.0 - - - - - - -
24/01:00pm 9.7 W 9 13 1011.8 - 0.0 - - - - - - -
24/12:30pm 9.6 WSW 11 18 1012.1 - 0.0 - - - - - - -
24/12:00pm 10.6 W 12 18 1012.4 - 0.0 - - - - - - -
24/11:30am 9.6 W 12 17 1012.8 - 0.0 - - - - - - -
24/11:00am 9.2 W 15 19 1012.9 - 0.0 - - - - - - -
24/10:30am 8.4 W 16 21 1013.2 - 0.0 - - - - - - -
24/10:00am 8.0 W 14 18 1013.4 - 0.0 - - - - - - -
24/09:30am 7.4 W 14 19 1013.1 - 0.0 - - - - - - -
24/09:00am 5.9 W 12 16 1013.0 - 1.6 - - - - - - -
24/08:30am 4.1 WNW 9 10 1012.8 - 1.6 - - - - - - -
24/08:00am 3.6 WNW 9 12 1012.5 - 1.6 - - - - - - -
24/07:30am 3.5 WNW 10 12 1012.5 - 1.6 - - - - - - -
24/07:00am 2.8 WNW 11 13 1012.2 - 1.6 - - - - - - -
24/06:30am 2.6 W 12 14 1011.5 - 1.6 - - - - - - -
24/06:00am 2.9 W 11 15 1011.1 - 1.6 - - - - - - -
24/05:30am 3.5 W 11 13 1011.0 - 1.6 - - - - - - -
24/05:00am 3.3 W 10 14 1010.4 - 1.6 - - - - - - -
24/04:30am 3.5 W 12 15 1010.1 - 1.6 - - - - - - -
24/04:00am 3.4 W 16 20 1009.6 - 1.6 - - - - - - -
24/03:30am 3.7 W 13 15 1009.5 - 1.6 - - - - - - -
24/03:00am 4.0 W 12 15 1009.6 - 1.6 - - - - - - -
24/02:30am 3.9 W 14 17 1009.1 - 1.6 - - - - - - -
24/02:00am 4.1 W 14 18 1008.8 - 1.6 - - - - - - -
24/01:30am 4.3 W 13 16 1008.4 - 1.6 - - - - - - -
24/01:00am 4.9 WNW 13 17 1007.8 - 1.6 - - - - - - -
24/12:30am 5.4 WNW 10 12 1007.9 - 1.6 - - - - - - -
24/12:00am 5.7 W 10 13 1007.5 - 1.6 - - - - - - -
 
Date/Time
EST
Temp
°C
Wind Pressure Rain since
9am
mm
Weather Cloud Vis
km
Sea
Height
m
Swell
Dir  Spd
kts
Gust
kts
hPa Trend Height
m
Period
s
Dir
23/11:30pm 6.3 W 13 19 1007.0 - 1.6 - - - - - - -
23/11:00pm 6.8 WNW 12 17 1006.3 - 1.6 - - - - - - -
23/10:30pm 7.9 WNW 12 15 1005.8 - 1.6 - - - - - - -
23/10:00pm 8.9 WNW 13 19 1005.5 - 1.6 - - - - - - -
23/09:30pm 8.9 W 13 17 1005.1 - 1.6 - - - - - - -
23/09:00pm 9.4 W 11 13 1004.5 - 1.6 Recent precip. - - - - - -
23/08:30pm 10.1 W 13 17 1004.2 - 1.6 - - - - - - -
23/08:00pm 10.2 W 11 14 1003.8 - 1.4 - - - - - - -
23/07:30pm 10.7 NW 14 19 1003.3 - 1.4 - - - - - - -
23/07:00pm 10.0 WNW 12 18 1003.2 - 1.4 - - - - - - -
23/06:30pm 10.6 WNW 18 28 1003.3 - 1.4 - - - - - - -
23/06:28pm 10.5 WNW 18 28 1003.2 - 1.4 - - - - - - -
23/06:18pm 11.1 WNW 22 33 1003.3 - 1.2 - - - - - - -
23/06:00pm 12.9 NW 21 32 1002.8 - 0.6 - - - - - - -
23/05:30pm 12.7 NW 25 39 1002.8 - 0.6 - - - - - - -
23/05:08pm 12.7 NW 23 33 1003.0 - 0.6 - - - - - - -
23/05:00pm 12.5 NW 24 32 1003.1 - 0.6 - - - - - - -
23/04:30pm 12.2 NW 22 32 1003.9 - 0.6 - - - - - - -
23/04:00pm 11.5 NW 20 32 1004.5 - 0.6 - - - - - - -
23/03:30pm 11.8 NW 22 32 1005.0 - 0.6 - - - - - - -
23/03:00pm 13.1 NW 23 40 1005.2 - 0.6 - - - - - - -
23/02:30pm 13.5 NW 27 41 1005.7 - 0.6 - - - - - - -
23/02:00pm 13.4 NW 28 41 1006.3 - 0.6 - - - - - - -
23/01:30pm 13.6 NW 23 36 1006.6 - 0.6 - - - - - - -
23/01:00pm 14.1 NW 28 41 1006.6 - 0.6 - - - - - - -
23/12:30pm 13.3 WNW 27 37 1007.3 - 0.6 - - - - - - -
23/12:00pm 14.0 NW 23 34 1008.3 - 0.6 - - - - - - -
23/11:30am 13.7 NW 20 35 1009.4 - 0.6 - - - - - - -
23/11:08am 12.7 NW 18 28 1010.0 - 0.6 - - - - - - -
23/11:00am 12.6 NW 19 28 1010.1 - 0.6 - - - - - - -
23/10:34am 12.9 NNW 19 29 1010.8 - 0.6 - - - - - - -
23/10:30am 12.4 NNW 20 29 1010.9 - 0.6 - - - - - - -
23/10:00am 11.7 NNW 21 28 1011.1 - 0.4 - - - - - - -
23/09:50am 11.8 NNW 17 27 1011.4 - 0.4 - - - - - - -
23/09:30am 11.6 NW 17 24 1011.8 - 0.4 - - - - - - -
23/09:00am 11.6 NW 22 32 1012.0 - 0.4 Recent precip. - - - - - -
23/08:30am 12.8 NW 21 35 1012.1 - 0.2 - - - - - - -
23/08:00am 12.8 WNW 20 31 1012.0 - 0.2 - - - - - - -
23/07:58am 12.9 WNW 20 31 1012.0 - 0.2 - - - - - - -
23/07:30am 12.7 NW 20 29 1012.3 - 0.2 - - - - - - -
23/07:21am 12.8 NW 19 29 1012.3 - 0.2 - - - - - - -
23/07:00am 12.7 NW 21 28 1012.3 - 0.2 - - - - - - -
23/06:30am 12.4 NW 18 25 1012.2 - 0.2 - - - - - - -
23/06:00am 12.7 NW 20 27 1012.4 - 0.0 - - - - - - -
23/05:30am 12.3 NW 16 23 1012.5 - 0.0 - - - - - - -
23/05:15am 11.8 NW 15 25 1012.6 - 0.0 - - - - - - -
23/05:00am 11.1 NW 13 17 1013.1 - 0.0 - - - - - - -
23/04:30am 10.5 NW 9 13 1013.7 - 0.0 - - - - - - -
23/04:00am 10.1 NW 11 14 1014.3 - 0.0 - - - - - - -
23/03:30am 9.8 NW 8 11 1014.8 - 0.0 - - - - - - -
23/03:00am 9.6 NW 8 11 1015.5 - 0.0 - - - - - - -
23/02:30am 9.6 NW 7 10 1015.9 - 0.0 - - - - - - -
23/02:00am 9.1 NW 6 8 1016.3 - 0.0 - - - - - - -
23/01:30am 9.1 NW 7 10 1016.7 - 0.0 - - - - - - -
23/01:00am 8.4 WNW 6 8 1017.1 - 0.0 - - - - - - -
23/12:30am 8.7 NW 7 8 1017.5 - 0.0 - - - - - - -
23/12:00am 9.0 NW 8 10 1017.9 - 0.0 - - - - - - -
 
Date/Time
EST
Temp
°C
Wind Pressure Rain since
9am
mm
Weather Cloud Vis
km
Sea
Height
m
Swell
Dir  Spd
kts
Gust
kts
hPa Trend Height
m
Period
s
Dir
22/11:30pm 8.8 NNW 6 8 1018.4 - 0.0 - - - - - - -
22/11:00pm 8.7 NW 8 10 1019.0 - 0.0 - - - - - - -
22/10:30pm 8.7 WNW 10 13 1019.4 - 0.0 - - - - - - -
22/10:00pm 9.0 WNW 11 14 1019.5 - 0.0 - - - - - - -
22/09:30pm 8.9 WNW 9 14 1019.7 - 0.0 - - - - - - -
22/09:00pm 9.2 NW 11 15 1020.2 - 0.0 - - - - - - -
22/08:30pm 9.5 NW 12 16 1020.5 - 0.0 - - - - - - -
22/08:00pm 9.1 NW 8 10 1021.0 - 0.0 - - - - - - -
22/07:30pm 9.0 WNW 8 11 1021.2 - 0.0 - - - - - - -
22/07:00pm 9.4 NW 8 13 1021.0 - 0.0 - - - - - - -
22/06:30pm 9.6 NW 9 13 1021.3 - 0.0 - - - - - - -
22/06:00pm 9.8 NW 9 12 1021.6 - 0.0 - - - - - - -
22/05:30pm 9.8 WNW 11 15 1021.9 - 0.0 - - - - - - -
22/05:00pm 9.9 WNW 8 13 1022.1 - 0.0 - - - - - - -
22/04:30pm 10.2 NW 11 16 1022.2 - 0.0 - - - - - - -
22/04:00pm 10.9 NW 12 17 1022.1 - 0.0 - - - - - - -
22/03:30pm 11.6 WNW 13 19 1022.2 - 0.0 - - - - - - -

Other Formats:

Comma delimited format used in spreadsheet applications
http://www.bom.gov.au/fwo/IDT60701/IDT60701.94983.axf

JavaScript Object Notation format (JSON) in row-major order
http://www.bom.gov.au/fwo/IDT60701/IDT60701.94983.json